createdAt,value
2023-02-15T00:00:30.118Z,75.46
2023-02-15T00:03:31.535Z,75.73
2023-02-15T00:06:33.702Z,75.43
2023-02-15T00:09:35.106Z,75.92
2023-02-15T00:12:36.566Z,74.93
2023-02-15T00:15:37.971Z,75.15
2023-02-15T00:18:40.172Z,75.65
2023-02-15T00:21:42.052Z,75.18
2023-02-15T00:24:43.603Z,75.50
2023-02-15T00:27:44.997Z,75.58
2023-02-15T00:30:46.443Z,75.61
2023-02-15T00:33:47.963Z,75.47
2023-02-15T00:36:49.591Z,76.29
2023-02-15T00:39:51.010Z,76.61
2023-02-15T00:42:52.433Z,76.37
2023-02-15T00:45:54.621Z,75.52
2023-02-15T00:48:56.084Z,74.56
2023-02-15T00:51:57.479Z,74.71
2023-02-15T00:54:58.886Z,75.20
2023-02-15T00:58:00.319Z,76.23
2023-02-15T01:01:06.440Z,75.64
2023-02-15T01:04:07.899Z,75.77
2023-02-15T01:07:09.441Z,75.45
2023-02-15T01:10:10.882Z,75.29
2023-02-15T01:13:12.366Z,75.24
2023-02-15T01:16:13.866Z,74.47
2023-02-15T01:19:15.767Z,74.60
2023-02-15T01:22:17.197Z,74.69
2023-02-15T01:25:20.180Z,74.38
2023-02-15T01:28:21.641Z,74.39
2023-02-15T01:31:23.173Z,74.09
2023-02-15T01:34:24.793Z,74.47
2023-02-15T01:37:26.361Z,74.11
2023-02-15T01:40:27.798Z,74.67
2023-02-15T01:43:43.921Z,74.17
2023-02-15T01:46:52.695Z,73.92
2023-02-15T01:50:02.638Z,74.91
2023-02-15T01:53:12.366Z,75.07
2023-02-15T01:56:24.641Z,75.26
2023-02-15T01:59:26.558Z,75.10
2023-02-15T02:02:28.922Z,75.32
2023-02-15T02:05:30.841Z,75.06
2023-02-15T02:08:33.043Z,74.24
2023-02-15T02:11:35.602Z,73.55
2023-02-15T02:14:38.524Z,73.59
2023-02-15T02:17:48.928Z,73.53
2023-02-15T02:21:27.968Z,73.41
2023-02-15T02:24:38.553Z,73.63
2023-02-15T02:27:46.348Z,74.79
2023-02-15T02:31:12.215Z,74.66
2023-02-15T02:34:17.893Z,73.96
2023-02-15T02:38:00.879Z,73.39
2023-02-15T02:41:41.501Z,73.30
2023-02-15T02:44:45.118Z,73.33
2023-02-15T02:47:55.550Z,73.68
2023-02-15T02:50:58.221Z,74.65
2023-02-15T02:54:05.315Z,73.74
2023-02-15T02:57:10.374Z,73.23
2023-02-15T03:00:13.476Z,73.01
2023-02-15T03:03:26.372Z,73.06
2023-02-15T03:06:47.885Z,73.59
2023-02-15T03:09:55.488Z,73.71
2023-02-15T03:12:57.173Z,73.92
2023-02-15T03:16:19.964Z,74.01
2023-02-15T03:19:29.898Z,74.66
2023-02-15T03:22:37.652Z,74.18
2023-02-15T03:25:47.247Z,74.54
2023-02-15T03:28:52.698Z,74.65
2023-02-15T03:32:04.102Z,74.18
2023-02-15T03:35:06.815Z,74.65
2023-02-15T03:38:10.488Z,74.11
2023-02-15T03:41:13.966Z,73.89
2023-02-15T03:44:30.090Z,74.40
2023-02-15T03:47:36.663Z,74.32
2023-02-15T03:50:57.716Z,73.97
2023-02-15T03:54:01.130Z,74.09
2023-02-15T03:57:21.637Z,73.44
2023-02-15T04:00:44.358Z,74.30
2023-02-15T04:03:51.919Z,74.09
2023-02-15T04:06:53.417Z,75.11
2023-02-15T04:10:13.306Z,74.81
2023-02-15T04:13:14.730Z,74.94
2023-02-15T04:16:16.150Z,74.20
2023-02-15T04:19:36.272Z,74.53
2023-02-15T04:22:56.521Z,74.57
2023-02-15T04:25:57.925Z,75.46
2023-02-15T04:28:59.315Z,74.70
2023-02-15T04:32:02.415Z,74.22
2023-02-15T04:35:04.753Z,73.84
2023-02-15T04:38:06.313Z,74.51
2023-02-15T04:41:07.724Z,74.41
2023-02-15T04:44:09.593Z,73.80
2023-02-15T04:47:11.093Z,74.05
2023-02-15T04:50:12.721Z,73.50
2023-02-15T04:53:14.509Z,73.27
2023-02-15T04:56:15.937Z,73.32
2023-02-15T04:59:17.461Z,73.74
2023-02-15T05:02:19.091Z,72.95
2023-02-15T05:05:20.489Z,74.03
2023-02-15T05:08:21.924Z,74.23
2023-02-15T05:11:23.363Z,73.43
2023-02-15T05:14:24.951Z,73.82
2023-02-15T05:17:26.408Z,73.65
2023-02-15T05:20:28.341Z,73.76
2023-02-15T05:23:29.820Z,72.92
2023-02-15T05:26:49.582Z,73.55
2023-02-15T05:29:51.232Z,73.80
2023-02-15T05:32:52.698Z,74.26
2023-02-15T05:35:54.256Z,74.41
2023-02-15T05:38:56.221Z,74.57
2023-02-15T05:42:00.666Z,75.18
2023-02-15T05:45:02.201Z,73.55
2023-02-15T05:48:03.832Z,73.75
2023-02-15T05:51:07.917Z,73.49
2023-02-15T05:54:09.423Z,73.93
2023-02-15T05:57:10.842Z,74.76
2023-02-15T06:00:14.829Z,74.02
2023-02-15T06:03:17.150Z,73.85
2023-02-15T06:06:18.692Z,72.96
2023-02-15T06:09:20.721Z,73.13
2023-02-15T06:12:22.307Z,73.31
2023-02-15T06:15:23.732Z,73.80
2023-02-15T06:18:25.621Z,73.46
2023-02-15T06:21:27.007Z,73.15
2023-02-15T06:24:28.504Z,73.16
2023-02-15T06:27:29.941Z,73.31
2023-02-15T06:30:32.261Z,73.39
2023-02-15T06:33:34.918Z,73.03
2023-02-15T06:36:36.425Z,72.65
2023-02-15T06:39:38.381Z,73.18
2023-02-15T06:42:39.836Z,73.63
2023-02-15T06:45:42.127Z,73.00
2023-02-15T06:48:43.539Z,73.60
2023-02-15T06:51:44.942Z,73.67
2023-02-15T06:54:46.319Z,73.71
2023-02-15T06:57:50.486Z,73.37
2023-02-15T07:00:52.571Z,73.22
2023-02-15T07:03:53.989Z,72.96
2023-02-15T07:06:55.478Z,73.75
2023-02-15T07:09:56.908Z,72.68
2023-02-15T07:12:58.371Z,72.91
2023-02-15T07:16:00.204Z,72.61
2023-02-15T07:19:02.697Z,73.14
2023-02-15T07:22:05.870Z,72.20
2023-02-15T07:25:09.540Z,72.64
2023-02-15T07:28:10.962Z,72.23
2023-02-15T07:31:12.406Z,72.56
2023-02-15T07:34:13.865Z,72.99
2023-02-15T07:37:15.303Z,72.82
2023-02-15T07:40:16.796Z,72.96
2023-02-15T07:43:18.197Z,72.31
2023-02-15T07:46:21.710Z,72.70
2023-02-15T07:49:23.189Z,72.65
2023-02-15T07:52:26.165Z,72.96
2023-02-15T07:55:27.610Z,72.77
2023-02-15T07:58:47.663Z,72.92
2023-02-15T08:01:49.121Z,72.57
2023-02-15T08:04:51.294Z,72.63
2023-02-15T08:07:52.751Z,72.83
2023-02-15T08:11:12.985Z,72.20
2023-02-15T08:14:16.993Z,73.32
2023-02-15T08:17:19.099Z,73.17
2023-02-15T08:20:20.678Z,71.84
2023-02-15T08:23:22.090Z,71.73
2023-02-15T08:26:24.444Z,71.87
2023-02-15T08:29:27.474Z,72.20
2023-02-15T08:32:28.904Z,72.17
2023-02-15T08:35:30.317Z,71.53
2023-02-15T08:38:33.622Z,72.53
2023-02-15T08:41:37.293Z,71.82
2023-02-15T08:44:38.675Z,72.63
2023-02-15T08:47:40.057Z,72.19
2023-02-15T08:50:41.613Z,71.90
2023-02-15T08:53:45.932Z,71.70
2023-02-15T08:56:47.939Z,71.51
2023-02-15T08:59:50.323Z,71.42
2023-02-15T09:02:51.824Z,71.76
2023-02-15T09:05:58.193Z,71.42
2023-02-15T09:08:59.637Z,71.59
2023-02-15T09:12:01.111Z,71.90
2023-02-15T09:15:02.866Z,71.00
2023-02-15T09:18:06.926Z,71.28
2023-02-15T09:21:11.789Z,71.09
2023-02-15T09:24:15.990Z,71.17
2023-02-15T09:27:17.607Z,71.29
2023-02-15T09:30:19.690Z,71.04
2023-02-15T09:33:21.298Z,71.36
2023-02-15T09:36:25.637Z,71.83
2023-02-15T09:39:29.988Z,71.69
2023-02-15T09:42:43.931Z,71.08
2023-02-15T09:46:14.898Z,71.42
2023-02-15T09:49:39.956Z,71.74
2023-02-15T09:53:12.222Z,71.57
2023-02-15T09:56:33.148Z,71.99
2023-02-15T10:00:05.102Z,71.46
2023-02-15T10:03:28.970Z,70.69
2023-02-15T10:06:34.292Z,71.23
2023-02-15T10:10:19.517Z,70.86
2023-02-15T10:13:46.359Z,71.05
2023-02-15T10:17:13.905Z,70.72
2023-02-15T10:20:49.610Z,70.18
2023-02-15T10:24:05.802Z,70.23
2023-02-15T10:27:17.164Z,69.77
2023-02-15T10:30:21.705Z,70.70
2023-02-15T10:33:42.961Z,70.91
2023-02-15T10:37:25.046Z,70.23
2023-02-15T10:40:52.385Z,70.28
2023-02-15T10:44:15.555Z,69.48
2023-02-15T10:47:41.564Z,69.26
2023-02-15T10:50:52.491Z,69.41
2023-02-15T10:54:37.298Z,69.61
2023-02-15T10:58:08.430Z,69.09
2023-02-15T11:01:21.281Z,70.16
2023-02-15T11:04:50.839Z,71.20
2023-02-15T11:07:55.836Z,70.33
2023-02-15T11:11:06.243Z,71.25
2023-02-15T11:14:15.982Z,71.09
2023-02-15T11:17:30.269Z,69.69
2023-02-15T11:20:37.746Z,70.58
2023-02-15T11:23:45.734Z,70.75
2023-02-15T11:26:54.928Z,70.11
2023-02-15T11:30:01.847Z,70.26
2023-02-15T11:33:07.528Z,69.64
2023-02-15T11:36:33.747Z,69.40
2023-02-15T11:39:38.231Z,69.38
2023-02-15T11:42:41.587Z,68.71
2023-02-15T11:45:45.514Z,67.09
2023-02-15T11:48:46.923Z,65.40
2023-02-15T11:51:48.530Z,65.02
2023-02-15T11:54:52.318Z,64.68
2023-02-15T11:58:22.927Z,64.77
2023-02-15T12:01:29.488Z,63.66
2023-02-15T12:04:42.211Z,63.01
2023-02-15T12:07:53.097Z,61.87
2023-02-15T12:11:13.435Z,62.46
2023-02-15T12:14:16.744Z,62.13
2023-02-15T12:17:19.033Z,60.51
2023-02-15T12:20:20.445Z,61.60
2023-02-15T12:23:22.458Z,59.83
2023-02-15T12:26:33.011Z,58.81
2023-02-15T12:29:44.115Z,59.22
2023-02-15T12:32:56.132Z,59.04
2023-02-15T12:36:12.128Z,59.27
2023-02-15T12:39:13.502Z,59.47
2023-02-15T12:42:18.047Z,61.89
2023-02-15T12:45:31.879Z,62.69
2023-02-15T12:48:33.274Z,64.47
2023-02-15T12:51:52.641Z,65.19
2023-02-15T12:54:54.043Z,64.92
2023-02-15T12:58:31.000Z,65.52
2023-02-15T13:01:33.274Z,64.68
2023-02-15T13:04:34.712Z,65.48
2023-02-15T13:07:37.915Z,65.95
2023-02-15T13:10:55.695Z,66.46
2023-02-15T13:14:16.506Z,65.44
2023-02-15T13:17:19.794Z,65.39
2023-02-15T13:20:24.867Z,65.91
2023-02-15T13:23:28.826Z,66.42
2023-02-15T13:26:32.854Z,66.12
2023-02-15T13:29:38.205Z,66.39
2023-02-15T13:32:42.018Z,65.04
2023-02-15T13:36:03.365Z,65.27
2023-02-15T13:39:16.484Z,67.39
2023-02-15T13:42:31.816Z,67.26
2023-02-15T13:45:54.595Z,66.90
2023-02-15T13:49:34.045Z,66.54
2023-02-15T13:52:44.096Z,66.53
2023-02-15T13:55:56.462Z,66.59
2023-02-15T13:59:24.675Z,67.19
2023-02-15T14:02:45.055Z,68.67
2023-02-15T14:05:55.731Z,69.74
2023-02-15T14:09:11.090Z,69.79
2023-02-15T14:12:22.525Z,68.70
2023-02-15T14:15:23.974Z,68.26
2023-02-15T14:18:36.411Z,68.95
2023-02-15T14:21:47.048Z,68.38
2023-02-15T14:24:54.909Z,68.04
2023-02-15T14:28:26.977Z,68.52
2023-02-15T14:31:34.383Z,69.23
2023-02-15T14:34:46.212Z,69.73
2023-02-15T14:37:52.667Z,69.82
2023-02-15T14:41:14.230Z,68.24
2023-02-15T14:44:21.720Z,68.69
2023-02-15T14:47:31.206Z,69.52
2023-02-15T14:50:34.642Z,70.41
2023-02-15T14:53:39.334Z,69.94
2023-02-15T14:56:40.799Z,69.47
2023-02-15T14:59:44.994Z,68.88
2023-02-15T15:02:51.209Z,70.14
2023-02-15T15:05:56.419Z,71.05
2023-02-15T15:09:27.301Z,71.03
2023-02-15T15:12:35.176Z,71.10
2023-02-15T15:15:47.236Z,70.76
2023-02-15T15:18:50.067Z,70.88
2023-02-15T15:21:51.445Z,70.36
2023-02-15T15:24:57.375Z,70.34
2023-02-15T15:27:58.784Z,70.64
2023-02-15T15:31:18.094Z,70.28
2023-02-15T15:34:35.145Z,69.92
2023-02-15T15:38:12.242Z,69.65
2023-02-15T15:41:40.540Z,70.10
2023-02-15T15:44:55.515Z,70.73
2023-02-15T15:48:23.881Z,70.60
2023-02-15T15:51:32.240Z,70.22
2023-02-15T15:54:33.787Z,70.64
2023-02-15T15:57:40.221Z,71.31
2023-02-15T16:00:53.800Z,71.80
2023-02-15T16:03:57.703Z,71.98
2023-02-15T16:07:16.594Z,71.89
2023-02-15T16:10:21.005Z,71.51
2023-02-15T16:13:22.531Z,73.29
2023-02-15T16:16:28.984Z,72.46
2023-02-15T16:19:35.409Z,71.66
2023-02-15T16:22:37.025Z,71.67
2023-02-15T16:25:47.724Z,71.68
2023-02-15T16:28:54.597Z,71.71
2023-02-15T16:32:22.659Z,71.31
2023-02-15T16:35:24.571Z,71.09
2023-02-15T16:39:06.479Z,71.25
2023-02-15T16:42:09.070Z,71.31
2023-02-15T16:45:17.586Z,71.46
2023-02-15T16:48:25.963Z,71.69
2023-02-15T16:51:30.647Z,71.80
2023-02-15T16:54:32.853Z,71.58
2023-02-15T16:57:37.641Z,72.26
2023-02-15T17:00:41.946Z,72.64
2023-02-15T17:03:43.892Z,72.45
2023-02-15T17:06:59.699Z,72.16
2023-02-15T17:10:01.700Z,72.17
2023-02-15T17:13:10.415Z,72.51
2023-02-15T17:16:30.886Z,72.52
2023-02-15T17:19:49.612Z,72.07
2023-02-15T17:22:51.431Z,71.61
2023-02-15T17:25:53.451Z,72.95
2023-02-15T17:28:58.987Z,73.73
2023-02-15T17:32:03.108Z,73.14
2023-02-15T17:35:20.102Z,73.24
2023-02-15T17:38:22.326Z,73.22
2023-02-15T17:41:35.067Z,74.23
2023-02-15T17:44:36.509Z,74.34
2023-02-15T17:47:38.120Z,74.40
2023-02-15T17:50:39.580Z,74.20
2023-02-15T17:54:02.242Z,74.10
2023-02-15T17:57:05.576Z,74.07
2023-02-15T18:00:27.386Z,73.85
2023-02-15T18:04:14.392Z,73.89
2023-02-15T18:07:49.866Z,73.93
2023-02-15T18:11:11.090Z,74.15
2023-02-15T18:14:12.647Z,74.01
2023-02-15T18:17:17.033Z,74.34
2023-02-15T18:20:24.473Z,73.96
2023-02-15T18:23:26.723Z,73.50
2023-02-15T18:26:29.010Z,73.38
2023-02-15T18:29:31.401Z,72.96
2023-02-15T18:32:38.302Z,72.94
2023-02-15T18:35:40.310Z,72.55
2023-02-15T18:38:43.610Z,71.89
2023-02-15T18:41:45.527Z,71.74
2023-02-15T18:44:47.840Z,71.58
2023-02-15T18:47:49.916Z,71.36
2023-02-15T18:50:51.940Z,71.01
2023-02-15T18:53:54.229Z,72.01
2023-02-15T18:57:01.706Z,73.18
2023-02-15T19:00:05.893Z,72.91
2023-02-15T19:03:12.240Z,73.25
2023-02-15T19:06:16.067Z,72.92
2023-02-15T19:09:24.617Z,73.46
2023-02-15T19:12:29.287Z,73.09
2023-02-15T19:15:34.142Z,72.69
2023-02-15T19:18:37.245Z,73.35
2023-02-15T19:21:39.682Z,73.28
2023-02-15T19:24:44.646Z,72.98
2023-02-15T19:27:47.245Z,72.09
2023-02-15T19:30:48.863Z,71.81
2023-02-15T19:33:50.363Z,71.65
2023-02-15T19:36:54.161Z,71.92
2023-02-15T19:39:56.367Z,71.82
2023-02-15T19:42:58.085Z,71.87
2023-02-15T19:45:59.638Z,72.43
2023-02-15T19:49:01.145Z,72.87
2023-02-15T19:52:02.603Z,72.56
2023-02-15T19:55:04.198Z,72.41
2023-02-15T19:58:13.096Z,72.45
2023-02-15T20:01:14.646Z,74.23
2023-02-15T20:04:16.136Z,74.04
2023-02-15T20:07:28.512Z,74.11
2023-02-15T20:10:31.872Z,73.64
2023-02-15T20:13:33.431Z,74.37
2023-02-15T20:16:35.069Z,74.00
2023-02-15T20:19:38.889Z,73.81
2023-02-15T20:22:42.608Z,73.83
2023-02-15T20:25:44.613Z,73.82
2023-02-15T20:28:46.534Z,75.61
2023-02-15T20:31:48.570Z,75.35
2023-02-15T20:34:51.141Z,74.16
2023-02-15T20:37:54.239Z,73.78
2023-02-15T20:41:17.049Z,74.38
2023-02-15T20:44:24.365Z,73.59
2023-02-15T20:47:27.647Z,73.36
2023-02-15T20:50:32.240Z,72.89
2023-02-15T20:53:33.686Z,72.62
2023-02-15T20:56:35.174Z,73.35
2023-02-15T20:59:37.275Z,72.86
2023-02-15T21:02:38.753Z,71.97
2023-02-15T21:05:40.634Z,72.38
2023-02-15T21:08:42.431Z,72.83
2023-02-15T21:11:44.813Z,73.29
2023-02-15T21:14:46.491Z,73.53
2023-02-15T21:17:47.881Z,72.69
2023-02-15T21:20:54.497Z,72.93
2023-02-15T21:23:55.941Z,73.09
2023-02-15T21:27:01.910Z,73.42
2023-02-15T21:30:06.351Z,73.19
2023-02-15T21:33:07.847Z,73.30
2023-02-15T21:36:15.455Z,73.81
2023-02-15T21:39:36.334Z,73.13
2023-02-15T21:42:56.620Z,72.48
2023-02-15T21:46:16.846Z,73.28
2023-02-15T21:49:18.275Z,73.01
2023-02-15T21:52:22.870Z,73.26
2023-02-15T21:55:24.888Z,72.85
2023-02-15T21:58:28.667Z,72.72
2023-02-15T22:01:30.425Z,72.58
2023-02-15T22:04:32.870Z,72.16
2023-02-15T22:07:34.239Z,72.42
2023-02-15T22:10:35.639Z,72.63
2023-02-15T22:13:37.083Z,72.75
2023-02-15T22:16:38.544Z,72.00
2023-02-15T22:19:40.139Z,71.69
2023-02-15T22:22:41.555Z,72.41
2023-02-15T22:25:46.225Z,73.12
2023-02-15T22:28:47.805Z,73.08
2023-02-15T22:31:49.573Z,73.60
2023-02-15T22:34:52.795Z,73.21
2023-02-15T22:37:54.850Z,72.47
2023-02-15T22:41:03.767Z,72.29
2023-02-15T22:44:05.662Z,72.06
2023-02-15T22:47:14.965Z,72.33
2023-02-15T22:50:24.147Z,72.57
2023-02-15T22:53:26.111Z,72.39
2023-02-15T22:56:44.046Z,72.34
2023-02-15T22:59:46.050Z,73.43
2023-02-15T23:02:47.641Z,74.75
2023-02-15T23:05:49.938Z,73.84
2023-02-15T23:08:51.359Z,72.96
2023-02-15T23:11:53.768Z,74.04
2023-02-15T23:14:56.220Z,73.42
2023-02-15T23:18:04.605Z,72.66
2023-02-15T23:21:14.973Z,72.22
2023-02-15T23:24:23.110Z,72.34
2023-02-15T23:27:43.050Z,72.13
2023-02-15T23:30:44.959Z,73.58
2023-02-15T23:33:47.055Z,73.19
2023-02-15T23:36:48.497Z,72.00
2023-02-15T23:40:10.120Z,72.02
2023-02-15T23:43:20.242Z,71.35
2023-02-15T23:46:45.833Z,71.33
2023-02-15T23:49:47.302Z,70.67
2023-02-15T23:52:50.058Z,71.09
2023-02-15T23:55:51.702Z,71.00
2023-02-15T23:58:53.454Z,71.28
